site sitenws-alerts: Checking more than four warning/county codes can delay the loading of your pages. You should use a cron job to get the data.

Nearby METAR Weather Reports

 

KDMA - Davis/Tucson, Arizona, USA
Distance from station: W 21mi, 34km
Updated: 12/13/2018 12:56pm
Clear
Clear
 Wind from NNE
Wind: NNE 6 mph , 9 km/h
Temperature: 63°F , 17°C
Dew Point: 16°F , -9°C
Humidity: 16%
Barometer: 30.25 inHg , 1024.4 hPa
Clouds: Clear
Visibility: 10 miles , 16 km
2018/12/13 19:56 KDMA 131956Z AUTO 02005KT 10SM CLR 17/M09 A3025 RMK AO2 SLP229 T01651087 $
KTUS - Tucson, Arizona, USA
Distance from station: W 26mi, 42km
Updated: 12/13/2018 12:53pm
Clear
Clear
 Wind from NNW
Wind: NNW 10 mph , 17 km/h
Temperature: 63°F , 17°C
Dew Point: 12°F , -11°C
Humidity: 14%
Barometer: 30.26 inHg , 1024.7 hPa
Clouds: Clear
Visibility: 10 miles , 16 km
2018/12/13 19:53 KTUS 131953Z 33009KT 10SM CLR 17/M11 A3026 RMK AO2 SLP230 T01671111
 
KALK - Pioneer Airfield, Arizona, USA
Distance from station: S 37mi, 60km
Updated: 12/13/2018 12:56pm
Clear
Clear
 Wind from NNE
Wind: NNE 7 mph , 11 km/h
Temperature: 55°F , 13°C
Dew Point: 10°F , -12°C
Humidity: 16%
Barometer: 30.28 inHg , 1025.4 hPa
Clouds: Clear
Visibility: 10 miles , 16 km
2018/12/13 19:56 KALK 131956Z AUTO 02006KT 10SM CLR 13/M12 A3028 RMK AO2 SLP206 T01281117
KRYN - Tucson/Ryan Fld, Arizona, USA
Distance from station: W 39mi, 62km
Updated: 12/13/2018 12:45pm
Clear
Clear
 Wind from WNW
Wind: WNW 14 mph , 22 km/h
Temperature: 61°F , 16°C
Dew Point: 10°F , -12°C
Humidity: 13%
Barometer: 30.28 inHg , 1025.4 hPa
Clouds: Clear
Visibility: 10 miles , 16 km
2018/12/13 19:45 KRYN 131945Z 30012KT 10SM CLR 16/M12 A3028
 
KFHU - Fort Huachuca, Arizona, USA
Distance from station: SSE 39mi, 63km
Updated: 12/13/2018 12:58pm
Clear
Clear
 Wind from N
Wind: N 5 mph , 7 km/h
Temperature: 54°F , 12°C
Dew Point: 3°F , -16°C
Humidity: 13%
Barometer: 30.27 inHg , 1025.1 hPa
Clouds: Clear
Visibility: 10 miles , 16 km
2018/12/13 19:58 KFHU 131958Z AUTO 01004KT 10SM CLR 12/M16 A3027 RMK AO2 SLP226 T01201158
KOLS - Nogales, Arizona, USA
Distance from station: SSW 54mi, 86km
Updated: 12/13/2018 12:54pm
Clear
Clear
 Wind from WNW
Wind: WNW 5 mph , 7 km/h
Temperature: 61°F , 16°C
Dew Point: 16°F , -9°C
Humidity: 17%
Barometer: 30.23 inHg , 1023.7 hPa
Clouds: Clear
Visibility: 10 miles , 16 km
2018/12/13 19:54 KOLS 131954Z AUTO 29004KT 10SM CLR 16/M09 A3023 RMK AO2 SLP211 T01611089
 
KDUG - Douglas Bisbee, Arizona, USA
Distance from station: SE 71mi, 114km
Updated: 12/13/2018 12:56pm
Clear
Clear
 Wind from ENE
Wind: ENE 3 mph , 6 km/h
Temperature: 54°F , 12°C
Dew Point: 12°F , -11°C
Humidity: 19%
Barometer: 30.26 inHg , 1024.7 hPa
Clouds: Clear
Visibility: 10 miles , 16 km
2018/12/13 19:56 KDUG 131956Z AUTO 07003KT 10SM CLR 12/M11 A3026 RMK AO2 SLP224 T01171106
KSAD - Safford, Arizona, USA
Distance from station: NE 71mi, 114km
Updated: 12/13/2018 12:51pm
Clear
Clear
 Wind from W
Wind: W 7 mph , 11 km/h
Temperature: 55°F , 13°C
Dew Point: 3°F , -16°C
Humidity: 12%
Barometer: 30.25 inHg , 1024.4 hPa
Clouds: Clear
Visibility: 10 miles , 16 km
2018/12/13 19:51 KSAD 131951Z AUTO 28006KT 10SM CLR 13/M16 A3025 RMK AO2 SLP228 T01281156
 
KCGZ - Casa Granda, Arizona, USA
Distance from station: NW 93mi, 149km
Updated: 12/13/2018 12:56pm
Clear
Clear
 Wind from N
Wind: N 5 mph , 7 km/h
Temperature: 61°F , 16°C
Dew Point: 19°F , -7°C
Humidity: 20%
Barometer: 30.28 inHg , 1025.4 hPa
Clouds: Clear
Visibility: 10 miles , 16 km
2018/12/13 19:56 KCGZ 131956Z AUTO 01004KT 10SM CLR 16/M07 A3028 RMK AO2 SLP254 T01561072 $
KLSB - Lordsburg, New Mexico, USA
Distance from station: E 106mi, 171km
Updated: 02/26/2018 1:22pm
NOT Current
Clear
Clear
 Wind from ESE
Wind: ESE 13 mph , 20 km/h, Gust: 18 mph , 30 km/h
Temperature: 63°F , 17°C
Dew Point: 10°F , -12°C
Humidity: 13%
Barometer: 30.04 inHg , 1017.3 hPa
Clouds: Clear
Visibility: 10 miles , 16 km
2018/02/26 20:22 KLSB 262022Z AUTO 11011G16KT 090V150 10SM CLR 17/M12 A3004
 
KPHX - Phoenix/Sky Hrbr, Arizona, USA
Distance from station: NW 126mi, 202km
Updated: 12/13/2018 12:51pm
Few Clouds
Few Clouds
 Wind from WNW
Wind: WNW 6 mph , 9 km/h
Temperature: 63°F , 17°C
Dew Point: 19°F , -7°C
Humidity: 19%
Barometer: 30.25 inHg , 1024.4 hPa
Clouds: Few Clouds
Visibility: 10 miles , 16 km
Cloud details: Few Clouds 25000 ft
2018/12/13 19:51 KPHX 131951Z 30005KT 10SM FEW250 17/M07 A3025 RMK AO2 SLP238 T01671072
KGXF - Gila Bend (aaf), Arizona, USA
Distance from station: WNW 139mi, 223km
Updated: 12/13/2018 12:58pm
Clear
Clear
 Wind from ENE
Wind: ENE 3 mph , 6 km/h
Temperature: 66°F , 19°C
Dew Point: 18°F , -8°C
Humidity: 15%
Barometer: 30.26 inHg , 1024.7 hPa
Clouds: Clear
Visibility: 10 miles , 16 km
2018/12/13 19:58 KGXF 131958Z 06003KT 10SM CLR 19/M08 A3026 RMK AO2A SLPNO WND DATA ESTMD ALSTG ESTMD
 
KSVC - Silver City, New Mexico, USA
Distance from station: ENE 142mi, 228km
Updated: 12/13/2018 1:15pm
Clear
Clear
 Wind from SE
Wind: SE 6 mph , 9 km/h
Temperature: 46°F , 8°C
Wind Chill: 43°F , 6°C
Dew Point: -0°F , -18°C
Humidity: 14%
Barometer: 30.25 inHg , 1024.4 hPa
Clouds: Clear
Visibility: 10 miles , 16 km
2018/12/13 20:15 KSVC 132015Z AUTO 13005KT 10SM CLR 08/M18 A3025 RMK AO2 T00831177
KLUF - Luke Afb/Glendal, Arizona, USA
Distance from station: NW 144mi, 232km
Updated: 12/13/2018 12:56pm
Clear
Clear
 Wind from NE
Wind: NE 13 mph , 20 km/h
Temperature: 68°F , 20°C
Dew Point: 10°F , -12°C
Humidity: 10%
Barometer: 30.25 inHg , 1024.4 hPa
Clouds: Clear
Visibility: 10 miles , 16 km
2018/12/13 19:56 KLUF 131956Z AUTO 04011KT 10SM CLR 20/M12 A3025 RMK AO2 SLP241 T01951118 $